createdAt,value
2022-09-16T00:00:33.578Z,0.00
2022-09-16T00:01:33.539Z,0.00
2022-09-16T00:02:36.885Z,0.00
2022-09-16T00:03:34.538Z,0.00
2022-09-16T00:04:33.481Z,0.00
2022-09-16T00:05:33.473Z,0.00
2022-09-16T00:06:33.487Z,0.00
2022-09-16T00:07:33.454Z,0.00
2022-09-16T00:08:33.436Z,0.00
2022-09-16T00:09:33.433Z,0.00
2022-09-16T00:10:33.446Z,0.00
2022-09-16T00:11:33.405Z,0.00
2022-09-16T00:12:33.389Z,0.00
2022-09-16T00:13:33.380Z,0.00
2022-09-16T00:14:33.367Z,0.00
2022-09-16T00:15:33.379Z,0.00
2022-09-16T00:16:33.415Z,0.00
2022-09-16T00:17:33.334Z,0.00
2022-09-16T00:18:33.320Z,0.00
2022-09-16T00:19:33.336Z,0.00
2022-09-16T00:20:33.301Z,0.00
2022-09-16T00:21:33.311Z,0.00
2022-09-16T00:22:33.278Z,0.00
2022-09-16T00:23:33.273Z,0.00
2022-09-16T00:24:33.256Z,0.00
2022-09-16T00:25:33.248Z,0.00
2022-09-16T00:26:33.252Z,0.00
2022-09-16T00:27:33.226Z,0.00
2022-09-16T00:28:33.210Z,0.00
2022-09-16T00:29:33.202Z,0.00
2022-09-16T00:30:33.203Z,0.00
2022-09-16T00:31:33.255Z,0.00
2022-09-16T00:32:33.182Z,0.00
2022-09-16T00:33:33.156Z,0.00
2022-09-16T00:34:33.139Z,0.00
2022-09-16T00:35:33.151Z,0.00
2022-09-16T00:36:33.140Z,0.00
2022-09-16T00:37:33.112Z,0.00
2022-09-16T00:38:33.094Z,0.00
2022-09-16T00:39:33.123Z,0.00
2022-09-16T00:40:33.275Z,0.00
2022-09-16T00:41:33.154Z,0.00
2022-09-16T00:42:33.066Z,0.00
2022-09-16T00:43:33.065Z,0.00
2022-09-16T00:44:33.091Z,0.00
2022-09-16T00:45:33.043Z,0.00
2022-09-16T00:46:33.115Z,0.00
2022-09-16T00:47:32.997Z,0.00
2022-09-16T00:48:33.001Z,0.00
2022-09-16T00:49:32.978Z,0.00
2022-09-16T00:50:32.961Z,0.00
2022-09-16T00:51:32.972Z,0.00
2022-09-16T00:52:32.964Z,0.00
2022-09-16T00:53:32.926Z,0.00
2022-09-16T00:54:32.934Z,0.00
2022-09-16T00:55:32.909Z,0.00
2022-09-16T00:56:32.889Z,0.00
2022-09-16T00:57:32.882Z,0.00
2022-09-16T00:58:32.893Z,0.00
2022-09-16T00:59:32.858Z,0.00
2022-09-16T01:00:32.897Z,0.00
2022-09-16T01:01:32.968Z,0.00
2022-09-16T01:02:32.826Z,0.00
2022-09-16T01:03:32.838Z,0.00
2022-09-16T01:04:32.804Z,0.00
2022-09-16T01:05:32.793Z,0.00
2022-09-16T01:06:32.783Z,0.00
2022-09-16T01:07:32.790Z,0.00
2022-09-16T01:08:32.781Z,0.00
2022-09-16T01:09:32.748Z,0.00
2022-09-16T01:10:32.737Z,0.00
2022-09-16T01:11:32.732Z,0.00
2022-09-16T01:12:32.711Z,0.00
2022-09-16T01:13:32.724Z,0.00
2022-09-16T01:14:32.688Z,0.00
2022-09-16T01:15:32.677Z,0.00
2022-09-16T01:16:32.752Z,0.00
2022-09-16T01:17:32.657Z,0.00
2022-09-16T01:18:32.664Z,0.00
2022-09-16T01:19:32.655Z,0.00
2022-09-16T01:20:32.621Z,0.00
2022-09-16T01:21:32.610Z,0.00
2022-09-16T01:22:32.604Z,0.00
2022-09-16T01:23:32.629Z,0.00
2022-09-16T01:24:32.577Z,0.00
2022-09-16T01:25:32.564Z,0.00
2022-09-16T01:26:32.551Z,0.00
2022-09-16T01:27:32.564Z,0.00
2022-09-16T01:28:32.531Z,0.00
2022-09-16T01:29:32.525Z,0.00
2022-09-16T01:30:32.507Z,0.00
2022-09-16T01:31:32.610Z,0.00
2022-09-16T01:32:32.485Z,0.00
2022-09-16T01:33:32.493Z,0.00
2022-09-16T01:34:32.462Z,0.00
2022-09-16T01:35:32.539Z,0.00
2022-09-16T01:36:32.462Z,0.00
2022-09-16T01:37:32.430Z,0.00
2022-09-16T01:38:32.415Z,0.00
2022-09-16T01:39:32.431Z,0.00
2022-09-16T01:40:32.476Z,0.00
2022-09-16T01:41:32.386Z,0.00
2022-09-16T01:42:32.372Z,0.00
2022-09-16T01:43:32.381Z,0.00
2022-09-16T01:44:32.393Z,0.00
2022-09-16T01:45:32.339Z,0.00
2022-09-16T01:46:32.362Z,0.00
2022-09-16T01:47:32.315Z,0.00
2022-09-16T01:48:32.301Z,0.00
2022-09-16T01:49:32.342Z,0.00
2022-09-16T01:50:32.282Z,0.00
2022-09-16T01:51:32.271Z,0.00
2022-09-16T01:52:32.268Z,0.00
2022-09-16T01:53:32.246Z,0.00
2022-09-16T01:54:32.262Z,0.00
2022-09-16T01:55:32.241Z,0.00
2022-09-16T01:56:32.215Z,0.00
2022-09-16T01:57:32.200Z,0.00
2022-09-16T01:58:32.189Z,0.00
2022-09-16T01:59:32.198Z,0.00
2022-09-16T02:00:32.171Z,0.00
2022-09-16T02:01:32.166Z,0.00
2022-09-16T02:02:32.257Z,0.00
2022-09-16T02:03:32.134Z,0.00
2022-09-16T02:04:32.200Z,0.00
2022-09-16T02:05:32.135Z,0.00
2022-09-16T02:06:32.127Z,0.00
2022-09-16T02:07:32.088Z,0.00
2022-09-16T02:08:32.076Z,0.00
2022-09-16T02:09:32.066Z,0.00
2022-09-16T02:10:32.081Z,0.00
2022-09-16T02:11:32.085Z,0.00
2022-09-16T02:12:32.030Z,0.00
2022-09-16T02:13:32.021Z,0.00
2022-09-16T02:14:32.007Z,0.00
2022-09-16T02:15:32.022Z,0.00
2022-09-16T02:16:31.987Z,0.00
2022-09-16T02:17:31.980Z,0.00
2022-09-16T02:18:31.998Z,0.00
2022-09-16T02:19:31.960Z,0.00
2022-09-16T02:20:31.942Z,0.00
2022-09-16T02:21:31.956Z,0.00
2022-09-16T02:22:31.959Z,0.00
2022-09-16T02:23:31.907Z,0.00
2022-09-16T02:24:31.895Z,0.00
2022-09-16T02:25:31.906Z,0.00
2022-09-16T02:26:31.871Z,0.00
2022-09-16T02:27:31.883Z,0.00
2022-09-16T02:28:31.890Z,0.00
2022-09-16T02:29:31.867Z,0.00
2022-09-16T02:30:31.950Z,0.00
2022-09-16T02:31:31.873Z,0.00
2022-09-16T02:32:31.831Z,0.00
2022-09-16T02:33:31.796Z,0.00
2022-09-16T02:34:31.787Z,0.00
2022-09-16T02:35:31.773Z,0.00
2022-09-16T02:36:31.781Z,0.00
2022-09-16T02:37:31.749Z,0.00
2022-09-16T02:38:31.736Z,0.00
2022-09-16T02:39:31.734Z,0.00
2022-09-16T02:40:31.776Z,0.00
2022-09-16T02:41:31.736Z,0.00
2022-09-16T02:42:31.725Z,0.00
2022-09-16T02:43:31.732Z,0.00
2022-09-16T02:44:31.670Z,0.00
2022-09-16T02:45:31.847Z,0.00
2022-09-16T02:46:31.841Z,0.00
2022-09-16T02:47:31.637Z,0.00
2022-09-16T02:48:31.626Z,0.00
2022-09-16T02:49:31.615Z,0.00
2022-09-16T02:50:31.602Z,0.00
2022-09-16T02:51:31.613Z,0.00
2022-09-16T02:52:31.582Z,0.00
2022-09-16T02:53:31.572Z,0.00
2022-09-16T02:54:31.567Z,0.00
2022-09-16T02:55:31.847Z,0.00
2022-09-16T02:56:31.564Z,0.00
2022-09-16T02:57:31.550Z,0.00
2022-09-16T02:58:31.511Z,0.00
2022-09-16T02:59:31.525Z,0.00
2022-09-16T03:00:31.486Z,0.00
2022-09-16T03:01:31.517Z,0.00
2022-09-16T03:02:31.484Z,0.00
2022-09-16T03:03:31.456Z,0.00
2022-09-16T03:04:31.448Z,0.00
2022-09-16T03:05:31.432Z,0.00
2022-09-16T03:06:31.443Z,0.00
2022-09-16T03:07:31.408Z,0.00
2022-09-16T03:08:31.395Z,0.00
2022-09-16T03:09:31.414Z,0.00
2022-09-16T03:10:31.461Z,0.00
2022-09-16T03:11:31.393Z,0.00
2022-09-16T03:12:31.354Z,0.00
2022-09-16T03:13:31.351Z,0.00
2022-09-16T03:14:31.340Z,0.00
2022-09-16T03:15:31.338Z,0.00
2022-09-16T03:16:31.309Z,0.00
2022-09-16T03:17:31.327Z,0.00
2022-09-16T03:18:31.288Z,0.00
2022-09-16T03:19:31.302Z,0.00
2022-09-16T03:20:31.260Z,0.00
2022-09-16T03:21:31.250Z,0.00
2022-09-16T03:22:31.260Z,0.00
2022-09-16T03:23:31.230Z,0.00
2022-09-16T03:24:31.219Z,0.00
2022-09-16T03:25:31.224Z,0.00
2022-09-16T03:26:31.209Z,0.00
2022-09-16T03:27:31.205Z,0.00
2022-09-16T03:28:31.172Z,0.00
2022-09-16T03:29:31.185Z,0.00
2022-09-16T03:30:31.148Z,0.00
2022-09-16T03:31:31.194Z,0.00
2022-09-16T03:32:31.130Z,0.00
2022-09-16T03:33:31.114Z,0.00
2022-09-16T03:34:31.102Z,0.00
2022-09-16T03:35:31.117Z,0.00
2022-09-16T03:36:31.088Z,0.00
2022-09-16T03:37:31.091Z,0.00
2022-09-16T03:38:31.061Z,0.00
2022-09-16T03:39:31.049Z,0.00
2022-09-16T03:40:31.090Z,0.00
2022-09-16T03:41:31.027Z,0.00
2022-09-16T03:42:31.035Z,0.00
2022-09-16T03:43:31.022Z,0.00
2022-09-16T03:44:30.990Z,0.00
2022-09-16T03:45:31.080Z,0.00
2022-09-16T03:46:31.061Z,0.00
2022-09-16T03:47:30.976Z,0.00
2022-09-16T03:48:30.945Z,0.00
2022-09-16T03:49:30.961Z,0.00
2022-09-16T03:50:30.964Z,0.00
2022-09-16T03:51:30.916Z,0.00
2022-09-16T03:52:30.909Z,0.00
2022-09-16T03:53:30.910Z,0.00
2022-09-16T03:54:30.880Z,0.00
2022-09-16T03:55:30.872Z,0.00
2022-09-16T03:56:30.853Z,0.00
2022-09-16T03:57:30.842Z,0.00
2022-09-16T03:58:30.853Z,0.00
2022-09-16T03:59:30.845Z,0.00
2022-09-16T04:00:30.821Z,0.00
2022-09-16T04:01:30.850Z,0.00
2022-09-16T04:02:30.875Z,0.00
2022-09-16T04:03:33.295Z,0.00
2022-09-16T04:04:30.765Z,0.00
2022-09-16T04:05:30.754Z,0.00
2022-09-16T04:06:30.760Z,0.00
2022-09-16T04:07:30.730Z,0.00
2022-09-16T04:08:30.741Z,0.00
2022-09-16T04:09:30.742Z,0.00
2022-09-16T04:10:30.735Z,0.00
2022-09-16T04:11:30.684Z,0.00
2022-09-16T04:12:30.705Z,0.00
2022-09-16T04:13:30.685Z,0.00
2022-09-16T04:14:30.690Z,0.00
2022-09-16T04:15:30.642Z,0.00
2022-09-16T04:16:30.627Z,0.00
2022-09-16T04:17:30.617Z,0.00
2022-09-16T04:18:30.637Z,0.00
2022-09-16T04:19:30.614Z,0.00
2022-09-16T04:20:30.604Z,0.00
2022-09-16T04:21:30.573Z,0.00
2022-09-16T04:22:30.566Z,0.00
2022-09-16T04:23:30.553Z,0.00
2022-09-16T04:24:30.563Z,0.00
2022-09-16T04:25:30.615Z,0.00
2022-09-16T04:26:30.513Z,0.00
2022-09-16T04:27:30.502Z,0.00
2022-09-16T04:28:30.490Z,0.00
2022-09-16T04:29:30.484Z,0.00
2022-09-16T04:30:30.491Z,0.00
2022-09-16T04:31:30.460Z,0.00
2022-09-16T04:32:30.465Z,0.00
2022-09-16T04:33:30.457Z,0.00
2022-09-16T04:34:30.462Z,0.00
2022-09-16T04:35:30.482Z,0.00
2022-09-16T04:36:30.538Z,0.00
2022-09-16T04:37:30.393Z,0.00
2022-09-16T04:38:30.378Z,0.00
2022-09-16T04:39:30.390Z,0.00
2022-09-16T04:40:30.434Z,0.00
2022-09-16T04:41:30.345Z,0.00
2022-09-16T04:42:30.342Z,0.00
2022-09-16T04:43:30.322Z,0.00
2022-09-16T04:44:30.335Z,0.00
2022-09-16T04:45:30.300Z,0.00
2022-09-16T04:46:30.379Z,0.00
2022-09-16T04:47:30.281Z,0.00
2022-09-16T04:48:30.266Z,0.00
2022-09-16T04:49:30.257Z,0.00
2022-09-16T04:50:30.246Z,0.00
2022-09-16T04:51:30.275Z,0.00
2022-09-16T04:52:30.221Z,0.00
2022-09-16T04:53:30.228Z,0.00
2022-09-16T04:54:30.201Z,0.00
2022-09-16T04:55:30.217Z,0.00
2022-09-16T04:56:30.173Z,0.00
2022-09-16T04:57:30.217Z,0.00
2022-09-16T04:58:30.174Z,0.00
2022-09-16T04:59:30.143Z,0.00
2022-09-16T05:00:30.128Z,0.00
2022-09-16T05:01:30.257Z,0.00
2022-09-16T05:02:30.131Z,0.00
2022-09-16T05:03:30.195Z,0.00
2022-09-16T05:04:30.102Z,0.00
2022-09-16T05:05:30.072Z,0.00
2022-09-16T05:06:30.069Z,0.00
2022-09-16T05:07:30.075Z,0.00
2022-09-16T05:08:30.042Z,0.00
2022-09-16T05:09:30.052Z,0.00
2022-09-16T05:10:30.014Z,0.00
2022-09-16T05:11:30.006Z,0.00
2022-09-16T05:12:29.994Z,0.00
2022-09-16T05:13:30.001Z,0.00
2022-09-16T05:14:29.988Z,0.00
2022-09-16T05:15:29.961Z,0.00
2022-09-16T05:16:30.050Z,0.00
2022-09-16T05:17:49.763Z,0.00
2022-09-16T05:18:30.928Z,0.00
2022-09-16T05:19:29.939Z,0.00
2022-09-16T05:20:29.903Z,0.00
2022-09-16T05:21:29.892Z,0.00
2022-09-16T05:22:29.880Z,0.00
2022-09-16T05:23:29.997Z,0.00
2022-09-16T05:24:29.878Z,0.00
2022-09-16T05:25:29.851Z,0.00
2022-09-16T05:26:29.836Z,0.00
2022-09-16T05:27:29.844Z,0.00
2022-09-16T05:28:29.811Z,0.00
2022-09-16T05:29:29.824Z,0.00
2022-09-16T05:30:29.791Z,0.00
2022-09-16T05:31:29.784Z,0.00
2022-09-16T05:32:29.767Z,0.00
2022-09-16T05:33:29.815Z,0.00
2022-09-16T05:34:29.764Z,0.00
2022-09-16T05:35:29.734Z,0.00
2022-09-16T05:36:29.729Z,0.00
2022-09-16T05:37:29.720Z,5.62
2022-09-16T05:38:29.701Z,5.62
2022-09-16T05:39:30.200Z,5.62
2022-09-16T05:40:29.758Z,5.62
2022-09-16T05:41:29.665Z,5.62
2022-09-16T05:42:29.652Z,5.62
2022-09-16T05:43:29.643Z,5.62
2022-09-16T05:44:29.651Z,5.62
2022-09-16T05:45:32.405Z,5.62
2022-09-16T05:46:29.715Z,11.25
2022-09-16T05:47:29.598Z,11.25
2022-09-16T05:48:29.587Z,16.88
2022-09-16T05:49:29.576Z,16.88
2022-09-16T05:50:29.566Z,22.50
2022-09-16T05:51:29.576Z,16.88
2022-09-16T05:52:29.540Z,22.50
2022-09-16T05:53:29.529Z,16.88
2022-09-16T05:54:29.536Z,16.88
2022-09-16T05:55:29.622Z,22.50
2022-09-16T05:56:29.517Z,28.12
2022-09-16T05:57:29.484Z,28.12
2022-09-16T05:58:29.492Z,28.12
2022-09-16T05:59:29.488Z,28.12
2022-09-16T06:00:29.542Z,33.75
2022-09-16T06:01:29.524Z,39.38
2022-09-16T06:02:29.482Z,45.00
2022-09-16T06:03:29.419Z,45.00
2022-09-16T06:04:29.427Z,39.38
2022-09-16T06:05:29.396Z,33.75
2022-09-16T06:06:29.381Z,33.75
2022-09-16T06:07:29.370Z,39.38
2022-09-16T06:08:29.359Z,45.00
2022-09-16T06:09:29.352Z,56.25
2022-09-16T06:10:29.479Z,61.88
2022-09-16T06:11:29.447Z,61.88
2022-09-16T06:12:29.316Z,50.62
2022-09-16T06:13:29.304Z,56.25
2022-09-16T06:14:29.310Z,61.88
2022-09-16T06:15:29.330Z,61.88
2022-09-16T06:16:29.294Z,45.00
2022-09-16T06:17:29.291Z,39.38
2022-09-16T06:18:29.248Z,39.38
2022-09-16T06:19:29.246Z,56.25
2022-09-16T06:20:29.227Z,67.50
2022-09-16T06:21:29.237Z,67.50
2022-09-16T06:22:29.209Z,56.25
2022-09-16T06:23:29.191Z,45.00
2022-09-16T06:24:29.181Z,45.00
2022-09-16T06:25:29.197Z,39.38
2022-09-16T06:26:29.271Z,39.38
2022-09-16T06:27:29.292Z,39.38
2022-09-16T06:28:29.157Z,39.38
2022-09-16T06:29:29.123Z,39.38
2022-09-16T06:30:31.121Z,39.38
2022-09-16T06:31:29.098Z,33.75
2022-09-16T06:32:29.100Z,28.12
2022-09-16T06:33:29.113Z,28.12
2022-09-16T06:34:29.087Z,33.75
2022-09-16T06:35:29.074Z,33.75
2022-09-16T06:36:29.049Z,33.75
2022-09-16T06:37:29.052Z,33.75
2022-09-16T06:38:29.026Z,28.12
2022-09-16T06:39:29.010Z,28.12
2022-09-16T06:40:29.076Z,33.75
2022-09-16T06:41:28.985Z,45.00
2022-09-16T06:42:28.999Z,45.00
2022-09-16T06:43:29.079Z,50.62
2022-09-16T06:44:28.955Z,45.00
2022-09-16T06:45:28.941Z,50.62
2022-09-16T06:46:29.039Z,61.88
2022-09-16T06:47:28.943Z,67.50
2022-09-16T06:48:28.911Z,56.25
2022-09-16T06:49:28.897Z,56.25
2022-09-16T06:50:28.888Z,50.62
2022-09-16T06:51:28.872Z,50.62
2022-09-16T06:52:28.911Z,56.25
2022-09-16T06:53:28.856Z,56.25
2022-09-16T06:54:28.842Z,56.25
2022-09-16T06:55:28.834Z,50.62
2022-09-16T06:56:28.916Z,50.62
2022-09-16T06:57:28.804Z,45.00
2022-09-16T06:58:28.794Z,50.62
2022-09-16T06:59:28.901Z,50.62
2022-09-16T07:00:28.776Z,50.62
2022-09-16T07:01:29.014Z,50.62
2022-09-16T07:02:28.813Z,50.62
2022-09-16T07:03:28.742Z,50.62
2022-09-16T07:04:28.729Z,56.25
2022-09-16T07:05:28.743Z,61.88
2022-09-16T07:06:49.559Z,67.50
2022-09-16T07:07:29.689Z,73.12
2022-09-16T07:08:28.684Z,73.12
2022-09-16T07:09:28.673Z,73.12
2022-09-16T07:10:28.661Z,84.38
2022-09-16T07:11:28.672Z,90.00
2022-09-16T07:12:28.637Z,84.38
2022-09-16T07:13:28.629Z,84.38
2022-09-16T07:14:28.620Z,90.00
2022-09-16T07:15:28.740Z,101.25
2022-09-16T07:16:28.637Z,106.88
2022-09-16T07:17:28.584Z,112.50
2022-09-16T07:18:28.570Z,112.50
2022-09-16T07:19:28.578Z,118.12
2022-09-16T07:20:28.545Z,123.75
2022-09-16T07:21:28.533Z,112.50
2022-09-16T07:22:28.525Z,112.50
2022-09-16T07:23:28.510Z,106.88
2022-09-16T07:24:28.523Z,106.88
2022-09-16T07:25:30.529Z,101.25
2022-09-16T07:26:29.506Z,95.62
2022-09-16T07:27:28.466Z,101.25
2022-09-16T07:28:28.468Z,106.88
2022-09-16T07:29:28.462Z,106.88
2022-09-16T07:30:28.611Z,101.25
2022-09-16T07:31:28.535Z,101.25
2022-09-16T07:32:28.418Z,101.25
2022-09-16T07:33:28.396Z,90.00
2022-09-16T07:34:28.412Z,84.38
2022-09-16T07:35:28.376Z,78.75
2022-09-16T07:36:28.390Z,84.38
2022-09-16T07:37:28.355Z,84.38
2022-09-16T07:38:28.342Z,84.38
2022-09-16T07:39:28.328Z,90.00
2022-09-16T07:40:29.844Z,61.88
2022-09-16T07:41:28.329Z,50.62
2022-09-16T07:42:28.320Z,45.00
2022-09-16T07:43:28.285Z,50.62
2022-09-16T07:44:28.275Z,56.25
2022-09-16T07:45:28.289Z,78.75
2022-09-16T07:46:28.250Z,67.50
2022-09-16T07:47:28.372Z,61.88
2022-09-16T07:48:32.455Z,67.50
2022-09-16T07:49:29.215Z,73.12
2022-09-16T07:50:28.203Z,84.38
2022-09-16T07:51:28.192Z,78.75
2022-09-16T07:52:28.212Z,67.50
2022-09-16T07:53:29.546Z,50.62
2022-09-16T07:54:28.162Z,50.62
2022-09-16T07:55:28.147Z,61.88
2022-09-16T07:56:28.136Z,67.50
2022-09-16T07:57:28.146Z,56.25
2022-09-16T07:58:28.114Z,50.62
2022-09-16T07:59:28.103Z,50.62
2022-09-16T08:00:28.091Z,50.62
2022-09-16T08:01:28.209Z,45.00
2022-09-16T08:02:28.213Z,39.38
2022-09-16T08:03:28.174Z,45.00
2022-09-16T08:04:28.086Z,56.25
2022-09-16T08:05:28.036Z,56.25
2022-09-16T08:06:28.058Z,50.62
2022-09-16T08:07:28.188Z,56.25
2022-09-16T08:08:28.003Z,73.12
2022-09-16T08:09:38.505Z,90.00
2022-09-16T08:10:32.237Z,90.00
2022-09-16T08:11:27.987Z,90.00
2022-09-16T08:12:27.953Z,95.62
2022-09-16T08:13:27.946Z,106.88
2022-09-16T08:14:27.933Z,112.50
2022-09-16T08:15:27.942Z,146.25
2022-09-16T08:16:27.973Z,168.75
2022-09-16T08:17:30.694Z,185.62
2022-09-16T08:18:28.906Z,202.50
2022-09-16T08:19:27.991Z,163.12
2022-09-16T08:20:27.864Z,219.38
2022-09-16T08:21:27.873Z,151.88
2022-09-16T08:22:27.847Z,157.50
2022-09-16T08:23:27.828Z,168.75
2022-09-16T08:24:27.818Z,225.00
2022-09-16T08:25:27.805Z,151.88
2022-09-16T08:26:27.845Z,208.12
2022-09-16T08:27:27.786Z,129.38
2022-09-16T08:28:39.632Z,106.88
2022-09-16T08:29:28.763Z,129.38
2022-09-16T08:30:27.749Z,202.50
2022-09-16T08:31:27.792Z,196.88
2022-09-16T08:32:27.727Z,275.62
2022-09-16T08:33:27.719Z,180.00
2022-09-16T08:34:27.709Z,230.62
2022-09-16T08:35:27.809Z,180.00
2022-09-16T08:36:27.707Z,196.88
2022-09-16T08:37:27.683Z,258.75
2022-09-16T08:38:27.661Z,112.50
2022-09-16T08:39:27.670Z,101.25
2022-09-16T08:40:27.654Z,101.25
2022-09-16T08:41:27.711Z,106.88
2022-09-16T08:42:27.614Z,101.25
2022-09-16T08:43:27.602Z,90.00
2022-09-16T08:44:27.605Z,84.38
2022-09-16T08:45:27.682Z,61.88
2022-09-16T08:46:27.591Z,61.88
2022-09-16T08:47:27.559Z,61.88
2022-09-16T08:48:28.786Z,56.25
2022-09-16T08:49:27.538Z,67.50
2022-09-16T08:50:27.527Z,90.00
2022-09-16T08:51:27.643Z,95.62
2022-09-16T08:52:27.520Z,112.50
2022-09-16T08:53:27.488Z,129.38
2022-09-16T08:54:27.487Z,135.00
2022-09-16T08:55:27.466Z,123.75
2022-09-16T08:56:27.483Z,146.25
2022-09-16T08:57:27.451Z,157.50
2022-09-16T08:58:27.434Z,129.38
2022-09-16T08:59:27.458Z,101.25
2022-09-16T09:00:27.410Z,95.62
2022-09-16T09:01:27.630Z,84.38
2022-09-16T09:02:27.714Z,95.62
2022-09-16T09:03:27.379Z,112.50
2022-09-16T09:04:27.369Z,129.38
2022-09-16T09:05:27.374Z,140.62
2022-09-16T09:06:27.345Z,140.62
2022-09-16T09:07:27.503Z,135.00
2022-09-16T09:08:27.452Z,135.00
2022-09-16T09:09:27.314Z,140.62
2022-09-16T09:10:27.297Z,140.62
2022-09-16T09:11:27.284Z,140.62
2022-09-16T09:12:27.819Z,140.62
2022-09-16T09:13:28.343Z,135.00
2022-09-16T09:14:27.549Z,129.38
2022-09-16T09:15:28.423Z,129.38
2022-09-16T09:16:27.273Z,123.75
2022-09-16T09:17:27.322Z,118.12
2022-09-16T09:18:27.232Z,112.50
2022-09-16T09:19:27.195Z,112.50
2022-09-16T09:20:27.184Z,129.38
2022-09-16T09:21:27.578Z,135.00
2022-09-16T09:22:27.164Z,140.62
2022-09-16T09:23:27.278Z,146.25
2022-09-16T09:24:27.166Z,196.88
2022-09-16T09:25:27.132Z,196.88
2022-09-16T09:26:27.117Z,326.25
2022-09-16T09:27:27.115Z,326.25
2022-09-16T09:28:27.095Z,303.75
2022-09-16T09:29:27.113Z,163.12
2022-09-16T09:30:27.074Z,157.50
2022-09-16T09:31:27.102Z,163.12
2022-09-16T09:32:27.069Z,163.12
2022-09-16T09:33:45.631Z,163.12
2022-09-16T09:34:28.026Z,151.88
2022-09-16T09:35:27.017Z,157.50
2022-09-16T09:36:27.028Z,174.38
2022-09-16T09:37:27.013Z,146.25
2022-09-16T09:38:26.979Z,106.88
2022-09-16T09:39:27.099Z,95.62
2022-09-16T09:40:27.024Z,95.62
2022-09-16T09:41:26.950Z,112.50
2022-09-16T09:42:26.958Z,112.50
2022-09-16T09:43:26.962Z,118.12
2022-09-16T09:44:26.916Z,112.50
2022-09-16T09:45:26.922Z,112.50
2022-09-16T09:46:26.924Z,129.38
2022-09-16T09:47:26.900Z,140.62
2022-09-16T09:48:26.899Z,163.12
2022-09-16T09:49:26.861Z,168.75
2022-09-16T09:50:26.865Z,168.75
2022-09-16T09:51:26.836Z,174.38
2022-09-16T09:52:26.830Z,163.12
2022-09-16T09:53:26.809Z,163.12
2022-09-16T09:54:26.803Z,157.50
2022-09-16T09:55:26.936Z,151.88
2022-09-16T09:56:26.777Z,146.25
2022-09-16T09:57:26.778Z,129.38
2022-09-16T09:58:26.755Z,118.12
2022-09-16T09:59:26.743Z,112.50
2022-09-16T10:00:26.756Z,118.12
2022-09-16T10:01:26.853Z,129.38
2022-09-16T10:02:26.759Z,135.00
2022-09-16T10:03:26.702Z,146.25
2022-09-16T10:04:26.694Z,140.62
2022-09-16T10:05:26.675Z,151.88
2022-09-16T10:06:26.690Z,157.50
2022-09-16T10:07:26.652Z,151.88
2022-09-16T10:08:26.645Z,140.62
2022-09-16T10:09:26.629Z,135.00
2022-09-16T10:10:26.627Z,275.62
2022-09-16T10:11:26.757Z,157.50
2022-09-16T10:12:26.602Z,168.75
2022-09-16T10:13:26.586Z,151.88
2022-09-16T10:14:26.599Z,146.25
2022-09-16T10:15:26.564Z,140.62
2022-09-16T10:16:26.663Z,140.62
2022-09-16T10:17:26.545Z,135.00
2022-09-16T10:18:26.554Z,129.38
2022-09-16T10:19:26.540Z,106.88
2022-09-16T10:20:26.505Z,84.38
2022-09-16T10:21:26.494Z,78.75
2022-09-16T10:22:26.488Z,78.75
2022-09-16T10:23:30.016Z,78.75
2022-09-16T10:24:26.466Z,78.75
2022-09-16T10:25:26.471Z,78.75
2022-09-16T10:26:26.439Z,78.75
2022-09-16T10:27:26.550Z,84.38
2022-09-16T10:28:26.416Z,225.00
2022-09-16T10:29:26.429Z,225.00
2022-09-16T10:30:26.415Z,225.00
2022-09-16T10:31:29.185Z,230.62
2022-09-16T10:32:27.372Z,241.88
2022-09-16T10:33:26.386Z,253.12
2022-09-16T10:34:26.349Z,258.75
2022-09-16T10:35:26.338Z,247.50
2022-09-16T10:36:26.325Z,253.12
2022-09-16T10:37:26.320Z,140.62
2022-09-16T10:38:26.305Z,270.00
2022-09-16T10:39:26.590Z,140.62
2022-09-16T10:40:26.365Z,292.50
2022-09-16T10:41:26.272Z,146.25
2022-09-16T10:42:26.281Z,275.62
2022-09-16T10:43:26.377Z,281.25
2022-09-16T10:44:26.235Z,292.50
2022-09-16T10:45:26.246Z,309.38
2022-09-16T10:46:26.271Z,331.88
2022-09-16T10:47:26.206Z,309.38
2022-09-16T10:48:26.187Z,236.25
2022-09-16T10:49:26.177Z,326.25
2022-09-16T10:50:26.185Z,258.75
2022-09-16T10:51:26.155Z,320.62
2022-09-16T10:52:26.223Z,320.62
2022-09-16T10:53:26.133Z,315.00
2022-09-16T10:54:26.121Z,320.62
2022-09-16T10:55:26.135Z,331.88
2022-09-16T10:56:26.099Z,337.50
2022-09-16T10:57:26.088Z,275.62
2022-09-16T10:58:26.077Z,326.25
2022-09-16T10:59:26.191Z,185.62
2022-09-16T11:00:26.076Z,151.88
2022-09-16T11:01:26.926Z,140.62
2022-09-16T11:02:26.035Z,140.62
2022-09-16T11:03:26.021Z,146.25
2022-09-16T11:04:26.009Z,157.50
2022-09-16T11:05:26.269Z,146.25
2022-09-16T11:06:25.993Z,140.62
2022-09-16T11:07:25.977Z,135.00
2022-09-16T11:08:25.965Z,135.00
2022-09-16T11:09:25.955Z,140.62
2022-09-16T11:10:25.966Z,140.62
2022-09-16T11:11:25.952Z,135.00
2022-09-16T11:12:25.923Z,135.00
2022-09-16T11:13:25.908Z,129.38
2022-09-16T11:14:25.906Z,123.75
2022-09-16T11:15:26.019Z,118.12
2022-09-16T11:16:25.955Z,157.50
2022-09-16T11:17:25.967Z,236.25
2022-09-16T11:18:25.850Z,236.25
2022-09-16T11:19:25.848Z,247.50
2022-09-16T11:20:26.031Z,270.00
2022-09-16T11:21:25.838Z,303.75
2022-09-16T11:22:25.808Z,208.12
2022-09-16T11:23:25.796Z,219.38
2022-09-16T11:24:25.790Z,320.62
2022-09-16T11:25:25.775Z,320.62
2022-09-16T11:26:25.782Z,326.25
2022-09-16T11:27:25.750Z,331.88
2022-09-16T11:28:25.739Z,331.88
2022-09-16T11:29:27.573Z,253.12
2022-09-16T11:30:25.953Z,202.50
2022-09-16T11:31:25.926Z,157.50
2022-09-16T11:32:25.694Z,163.12
2022-09-16T11:33:25.688Z,298.12
2022-09-16T11:34:25.673Z,292.50
2022-09-16T11:35:25.692Z,298.12
2022-09-16T11:36:26.678Z,286.88
2022-09-16T11:37:25.638Z,275.62
2022-09-16T11:38:25.630Z,270.00
2022-09-16T11:39:25.616Z,270.00
2022-09-16T11:40:25.775Z,281.25
2022-09-16T11:41:25.618Z,292.50
2022-09-16T11:42:25.813Z,309.38
2022-09-16T11:43:25.574Z,202.50
2022-09-16T11:44:25.559Z,258.75
2022-09-16T11:45:25.551Z,208.12
2022-09-16T11:46:25.558Z,219.38
2022-09-16T11:47:25.669Z,191.25
2022-09-16T11:48:25.521Z,281.25
2022-09-16T11:49:25.507Z,135.00
2022-09-16T11:50:25.514Z,101.25
2022-09-16T11:51:25.482Z,78.75
2022-09-16T11:52:25.686Z,67.50
2022-09-16T11:53:29.389Z,67.50
2022-09-16T11:54:26.495Z,73.12
2022-09-16T11:55:25.465Z,95.62
2022-09-16T11:56:25.426Z,118.12
2022-09-16T11:57:25.414Z,135.00
2022-09-16T11:58:25.402Z,151.88
2022-09-16T11:59:25.394Z,157.50
2022-09-16T12:00:25.379Z,140.62
2022-09-16T12:01:25.395Z,140.62
2022-09-16T12:02:25.609Z,135.00
2022-09-16T12:03:25.515Z,140.62
2022-09-16T12:04:25.339Z,146.25
2022-09-16T12:05:25.323Z,151.88
2022-09-16T12:06:25.329Z,168.75
2022-09-16T12:07:25.333Z,168.75
2022-09-16T12:08:25.291Z,168.75
2022-09-16T12:09:25.279Z,180.00
2022-09-16T12:10:25.268Z,174.38
2022-09-16T12:11:25.261Z,236.25
2022-09-16T12:12:25.265Z,180.00
2022-09-16T12:13:25.257Z,174.38
2022-09-16T12:14:25.221Z,174.38
2022-09-16T12:15:25.279Z,163.12
2022-09-16T12:16:28.117Z,163.12
2022-09-16T12:17:26.186Z,157.50
2022-09-16T12:18:25.288Z,157.50
2022-09-16T12:19:25.296Z,196.88
2022-09-16T12:20:25.154Z,258.75
2022-09-16T12:21:25.152Z,247.50
2022-09-16T12:22:25.132Z,241.88
2022-09-16T12:23:25.141Z,225.00
2022-09-16T12:24:25.107Z,213.75
2022-09-16T12:25:25.100Z,202.50
2022-09-16T12:26:25.084Z,196.88
2022-09-16T12:27:25.098Z,191.25
2022-09-16T12:28:25.063Z,191.25
2022-09-16T12:29:25.059Z,196.88
2022-09-16T12:30:25.038Z,174.38
2022-09-16T12:31:25.112Z,78.75
2022-09-16T12:32:25.039Z,191.25
2022-09-16T12:33:25.009Z,191.25
2022-09-16T12:34:25.041Z,191.25
2022-09-16T12:35:25.205Z,174.38
2022-09-16T12:36:24.971Z,191.25
2022-09-16T12:37:24.964Z,191.25
2022-09-16T12:38:24.971Z,191.25
2022-09-16T12:39:25.031Z,191.25
2022-09-16T12:40:24.990Z,191.25
2022-09-16T12:41:24.916Z,191.25
2022-09-16T12:42:24.909Z,191.25
2022-09-16T12:43:24.918Z,191.25
2022-09-16T12:44:33.869Z,196.88
2022-09-16T12:45:25.891Z,196.88
2022-09-16T12:46:24.954Z,191.25
2022-09-16T12:47:24.850Z,191.25
2022-09-16T12:48:24.858Z,196.88
2022-09-16T12:49:24.828Z,174.38
2022-09-16T12:50:24.849Z,112.50
2022-09-16T12:51:24.953Z,213.75
2022-09-16T12:52:24.790Z,135.00
2022-09-16T12:53:24.781Z,118.12
2022-09-16T12:54:24.770Z,106.88
2022-09-16T12:55:24.783Z,202.50